Time;durP1;ratioP1;P1;durP2;ratioP2;P2;SDS_P1;SDS_P2;PMS_P1;PMS_P2;Temp;Humidity;BMP_temperature;BMP_pressure;BME280_temperature;BME280_humidity;BME280_pressure;Samples;Min_cycle;Max_cycle;Signal;HPM_P1;HPM_P2
2023/09/21 00:02:12;0.00;0.00;0.62;0.00;0.00;0.62;3.40;1.30;;;29.40;29.30;;;;;;2248436;61;20898;-54
2023/09/21 00:04:58;0.00;0.00;0.62;0.00;0.00;0.62;1.80;1.13;;;29.40;29.30;;;;;;2248215;61;20383;-56
2023/09/21 00:07:43;0.00;0.00;0.62;0.00;0.00;0.62;2.33;1.63;;;29.40;29.30;;;;;;2248061;61;20431;-55
2023/09/21 00:10:28;0.00;0.00;0.62;0.00;0.00;0.62;3.73;1.70;;;29.40;29.20;;;;;;2248271;61;20387;-60
2023/09/21 00:13:12;0.00;0.00;0.62;0.00;0.00;0.62;1.80;1.20;;;29.40;29.20;;;;;;2248603;61;20821;-58
2023/09/21 00:15:59;0.00;0.00;0.62;0.00;0.00;0.62;2.17;1.50;;;29.40;29.20;;;;;;2249206;61;20356;-56
2023/09/21 00:18:46;0.00;0.00;0.62;0.00;0.00;0.62;1.97;1.50;;;29.40;29.20;;;;;;2248522;61;20367;-59
2023/09/21 00:21:31;0.00;0.00;0.62;0.00;0.00;0.62;1.83;1.50;;;29.30;29.10;;;;;;2248725;61;20411;-59
2023/09/21 00:24:15;0.00;0.00;0.62;0.00;0.00;0.62;2.10;1.50;;;29.30;29.10;;;;;;2248791;61;20394;-56
2023/09/21 00:27:00;0.00;0.00;0.62;0.00;0.00;0.62;1.83;1.33;;;29.30;29.20;;;;;;2249002;61;20408;-58
2023/09/21 00:29:49;0.00;0.00;0.62;0.00;0.00;0.62;2.27;1.40;;;29.40;29.20;;;;;;2248409;61;20828;-55
2023/09/21 00:32:40;0.00;0.00;0.62;0.00;0.00;0.62;3.80;1.70;;;29.30;29.10;;;;;;2249156;61;20391;-56
2023/09/21 00:35:28;0.00;0.00;0.62;0.00;0.00;0.62;1.60;1.20;;;29.30;29.10;;;;;;2248795;61;20356;-56
2023/09/21 00:38:16;0.00;0.00;0.62;0.00;0.00;0.62;2.23;1.47;;;29.30;29.10;;;;;;2248371;61;20503;-54
2023/09/21 00:41:02;0.00;0.00;0.62;0.00;0.00;0.62;2.07;1.53;;;29.30;29.10;;;;;;2248682;61;20808;-55
2023/09/21 00:43:47;0.00;0.00;0.62;0.00;0.00;0.62;3.20;2.23;;;29.30;29.10;;;;;;2248661;61;20364;-52
2023/09/21 00:46:35;0.00;0.00;0.62;0.00;0.00;0.62;2.30;1.47;;;29.30;29.10;;;;;;2248747;61;20359;-57
2023/09/21 00:49:21;0.00;0.00;0.62;0.00;0.00;0.62;3.93;1.57;;;29.30;29.10;;;;;;2248389;61;20399;-58
2023/09/21 00:52:11;0.00;0.00;0.62;0.00;0.00;0.62;2.23;1.80;;;29.30;29.10;;;;;;2248519;61;20368;-57
2023/09/21 00:54:56;0.00;0.00;0.62;0.00;0.00;0.62;2.03;1.30;;;29.30;29.10;;;;;;2249066;61;20368;-58
2023/09/21 00:57:41;0.00;0.00;0.62;0.00;0.00;0.62;2.30;1.60;;;29.30;29.10;;;;;;2248779;61;20783;-57
2023/09/21 01:00:27;0.00;0.00;0.62;0.00;0.00;0.62;3.27;1.90;;;29.30;29.10;;;;;;2248767;61;20973;-54
2023/09/21 01:03:14;0.00;0.00;0.62;0.00;0.00;0.62;2.10;1.40;;;29.30;29.10;;;;;;2248677;61;20456;-61
2023/09/21 01:05:59;0.00;0.00;0.62;0.00;0.00;0.62;2.23;1.40;;;29.30;29.10;;;;;;2248468;61;20403;-53
2023/09/21 01:08:45;0.00;0.00;0.62;0.00;0.00;0.62;2.40;1.60;;;29.30;29.10;;;;;;2248411;61;20854;-58
2023/09/21 01:11:30;0.00;0.00;0.62;0.00;0.00;0.62;2.10;1.50;;;29.30;29.70;;;;;;2248854;61;20426;-54
2023/09/21 01:14:15;0.00;0.00;0.62;0.00;0.00;0.62;1.80;1.50;;;29.30;29.10;;;;;;2245500;61;20874;-58
2023/09/21 01:16:59;0.00;0.00;0.62;0.00;0.00;0.62;2.53;1.50;;;29.30;29.10;;;;;;2248742;61;20902;-56
2023/09/21 01:19:44;0.00;0.00;0.62;0.00;0.00;0.62;2.43;1.80;;;29.30;29.10;;;;;;2245147;61;20391;-55
2023/09/21 01:22:30;0.00;0.00;0.62;0.00;0.00;0.62;2.53;1.70;;;29.30;29.10;;;;;;2248473;61;20368;-57
2023/09/21 01:25:16;0.00;0.00;0.62;0.00;0.00;0.62;2.83;1.60;;;29.30;29.10;;;;;;2245291;61;20556;-56
2023/09/21 01:28:02;0.00;0.00;0.62;0.00;0.00;0.62;2.40;1.70;;;29.20;29.00;;;;;;2244885;61;20379;-56
2023/09/21 01:30:48;0.00;0.00;0.62;0.00;0.00;0.62;2.50;1.70;;;29.30;29.00;;;;;;2248560;61;20956;-55
2023/09/21 01:33:33;0.00;0.00;0.62;0.00;0.00;0.62;2.10;1.40;;;29.30;29.00;;;;;;2248725;61;20370;-54
2023/09/21 01:36:18;0.00;0.00;0.62;0.00;0.00;0.62;2.10;1.57;;;29.20;29.00;;;;;;2244894;61;20419;-65
2023/09/21 01:39:09;0.00;0.00;0.62;0.00;0.00;0.62;2.00;1.50;;;29.20;29.00;;;;;;2248427;61;20395;-59
2023/09/21 01:41:54;0.00;0.00;0.62;0.00;0.00;0.62;2.10;1.27;;;29.20;29.00;;;;;;2248640;61;20568;-57
2023/09/21 01:44:39;0.00;0.00;0.62;0.00;0.00;0.62;1.90;1.40;;;29.20;28.90;;;;;;2248404;61;20941;-56
2023/09/21 01:47:24;0.00;0.00;0.62;0.00;0.00;0.62;2.00;1.43;;;29.20;28.90;;;;;;2248771;61;20403;-57
2023/09/21 01:50:15;0.00;0.00;0.62;0.00;0.00;0.62;2.10;1.63;;;29.30;29.00;;;;;;2248029;61;20812;-61
2023/09/21 01:53:02;0.00;0.00;0.62;0.00;0.00;0.62;2.27;1.60;;;29.20;28.90;;;;;;2245703;61;20399;-57
2023/09/21 01:55:49;0.00;0.00;0.62;0.00;0.00;0.62;2.20;1.77;;;29.20;28.90;;;;;;2248759;61;20363;-58
2023/09/21 01:58:35;0.00;0.00;0.62;0.00;0.00;0.62;2.20;1.57;;;29.20;28.90;;;;;;2248059;61;20463;-56
2023/09/21 02:01:20;0.00;0.00;0.62;0.00;0.00;0.62;2.00;1.30;;;29.20;28.80;;;;;;2245515;61;20399;-56
2023/09/21 02:04:05;0.00;0.00;0.62;0.00;0.00;0.62;3.40;2.03;;;29.20;28.80;;;;;;2245100;61;20372;-57
2023/09/21 02:06:50;0.00;0.00;0.62;0.00;0.00;0.62;3.63;1.70;;;29.20;28.80;;;;;;2248483;61;20906;-60
2023/09/21 02:09:35;0.00;0.00;0.62;0.00;0.00;0.62;1.90;1.50;;;29.20;28.80;;;;;;2247957;61;20399;-58
2023/09/21 02:12:19;0.00;0.00;0.62;0.00;0.00;0.62;2.03;1.47;;;29.30;28.90;;;;;;2248443;61;20418;-58
2023/09/21 02:15:13;0.00;0.00;0.62;0.00;0.00;0.62;1.97;1.33;;;29.20;28.80;;;;;;2248598;61;20875;-57
2023/09/21 02:17:57;0.00;0.00;0.62;0.00;0.00;0.62;2.43;1.60;;;29.20;28.80;;;;;;2244897;61;20372;-57
2023/09/21 02:20:44;0.00;0.00;0.62;0.00;0.00;0.62;2.73;1.83;;;29.20;28.80;;;;;;2248299;61;20461;-58
2023/09/21 02:23:30;0.00;0.00;0.62;0.00;0.00;0.62;2.33;1.60;;;29.20;28.80;;;;;;2248574;61;20929;-56
2023/09/21 02:26:15;0.00;0.00;0.62;0.00;0.00;0.62;2.20;1.70;;;29.20;28.80;;;;;;2248414;61;20439;-57
2023/09/21 02:29:01;0.00;0.00;0.62;0.00;0.00;0.62;2.60;1.70;;;29.20;28.80;;;;;;2248044;61;20391;-57
2023/09/21 02:31:46;0.00;0.00;0.62;0.00;0.00;0.62;2.30;1.50;;;29.20;28.80;;;;;;2248430;61;20380;-56
2023/09/21 02:34:33;0.00;0.00;0.62;0.00;0.00;0.62;2.67;1.67;;;29.20;28.80;;;;;;2248282;61;20542;-56
2023/09/21 02:37:18;0.00;0.00;0.62;0.00;0.00;0.62;2.17;1.70;;;29.20;28.80;;;;;;2248593;61;20368;-57
2023/09/21 02:40:07;0.00;0.00;0.62;0.00;0.00;0.62;2.33;1.50;;;29.20;28.80;;;;;;2245020;61;20395;-55
2023/09/21 02:42:54;0.00;0.00;0.62;0.00;0.00;0.62;2.20;1.73;;;29.20;28.80;;;;;;2248286;61;20374;-57
2023/09/21 02:45:39;0.00;0.00;0.62;0.00;0.00;0.62;2.43;1.83;;;29.20;28.80;;;;;;2245243;61;20871;-53
2023/09/21 02:48:25;0.00;0.00;0.62;0.00;0.00;0.62;2.30;1.97;;;29.20;28.70;;;;;;2244793;61;20367;-56
2023/09/21 02:51:10;0.00;0.00;0.62;0.00;0.00;0.62;2.60;1.93;;;29.20;28.80;;;;;;2245059;61;20420;-56
2023/09/21 02:53:55;0.00;0.00;0.62;0.00;0.00;0.62;2.47;1.63;;;29.10;28.60;;;;;;2248240;61;20890;-56
2023/09/21 02:56:40;0.00;0.00;0.62;0.00;0.00;0.62;2.30;1.40;;;29.20;28.70;;;;;;2248306;61;20367;-59
2023/09/21 02:59:26;0.00;0.00;0.62;0.00;0.00;0.62;2.00;1.63;;;29.10;28.60;;;;;;2248008;61;20386;-59
2023/09/21 03:02:10;0.00;0.00;0.62;0.00;0.00;0.62;2.00;1.60;;;29.20;28.70;;;;;;2245148;61;20454;-55
2023/09/21 03:04:57;0.00;0.00;0.62;0.00;0.00;0.62;2.07;1.40;;;29.10;28.60;;;;;;2248204;61;20391;-59
2023/09/21 03:07:43;0.00;0.00;0.62;0.00;0.00;0.62;2.43;1.73;;;29.10;28.60;;;;;;2245342;61;20933;-58
2023/09/21 03:10:28;0.00;0.00;0.62;0.00;0.00;0.62;2.07;1.50;;;29.10;28.60;;;;;;2245083;61;20450;-59
2023/09/21 03:13:18;0.00;0.00;0.62;0.00;0.00;0.62;2.77;1.80;;;29.10;28.60;;;;;;2248278;61;20376;-58
2023/09/21 03:16:10;0.00;0.00;0.62;0.00;0.00;0.62;2.37;1.63;;;29.10;28.60;;;;;;2245245;61;20363;-58
2023/09/21 03:18:55;0.00;0.00;0.62;0.00;0.00;0.62;1.90;1.43;;;29.10;28.60;;;;;;2247300;61;20360;-57
2023/09/21 03:21:42;0.00;0.00;0.62;0.00;0.00;0.62;2.90;1.87;;;29.10;28.50;;;;;;2248544;61;21110;-57
2023/09/21 03:24:27;0.00;0.00;0.62;0.00;0.00;0.62;1.90;1.60;;;29.10;28.50;;;;;;2248352;61;20383;-56
2023/09/21 03:27:14;0.00;0.00;0.62;0.00;0.00;0.62;3.63;1.70;;;29.10;28.50;;;;;;2248162;61;20360;-56
2023/09/21 03:29:59;0.00;0.00;0.62;0.00;0.00;0.62;2.17;1.50;;;29.10;28.50;;;;;;2244992;61;20487;-58
2023/09/21 03:32:44;0.00;0.00;0.62;0.00;0.00;0.62;2.30;1.40;;;29.10;28.50;;;;;;2245133;61;20403;-57
2023/09/21 03:35:29;0.00;0.00;0.62;0.00;0.00;0.62;1.93;1.20;;;29.00;28.40;;;;;;2248139;61;20849;-53
2023/09/21 03:38:18;0.00;0.00;0.62;0.00;0.00;0.62;2.30;1.67;;;29.00;28.40;;;;;;2247798;61;20372;-57
2023/09/21 03:41:02;0.00;0.00;0.62;0.00;0.00;0.62;3.10;2.10;;;29.00;28.40;;;;;;2248144;61;20531;-60
2023/09/21 03:43:47;0.00;0.00;0.62;0.00;0.00;0.62;2.93;1.73;;;29.10;28.50;;;;;;2248224;61;20396;-58
2023/09/21 03:46:34;0.00;0.00;0.62;0.00;0.00;0.62;2.50;1.63;;;29.00;28.40;;;;;;2245232;61;20364;-58
2023/09/21 03:49:20;0.00;0.00;0.62;0.00;0.00;0.62;1.97;1.50;;;29.00;28.40;;;;;;2244381;61;20434;-62
2023/09/21 03:52:06;0.00;0.00;0.62;0.00;0.00;0.62;2.40;1.70;;;29.00;28.40;;;;;;2247681;61;20378;-55
2023/09/21 03:54:52;0.00;0.00;0.62;0.00;0.00;0.62;4.23;1.90;;;29.00;28.40;;;;;;2248366;61;20460;-52
2023/09/21 03:57:38;0.00;0.00;0.62;0.00;0.00;0.62;2.17;1.70;;;29.00;28.40;;;;;;2244914;61;20376;-57
2023/09/21 04:03:10;0.00;0.00;0.62;0.00;0.00;0.62;2.30;1.90;;;29.00;28.40;;;;;;2244857;61;20375;-57
2023/09/21 04:06:17;0.00;0.00;0.62;0.00;0.00;0.62;3.20;2.00;;;29.00;28.30;;;;;;2245071;61;20386;-56
2023/09/21 04:09:02;0.00;0.00;0.62;0.00;0.00;0.62;1.90;1.60;;;29.00;28.30;;;;;;2244792;61;20943;-57
2023/09/21 04:11:48;0.00;0.00;0.62;0.00;0.00;0.62;2.13;1.70;;;29.00;28.30;;;;;;2244805;61;20367;-56
2023/09/21 04:14:32;0.00;0.00;0.62;0.00;0.00;0.62;2.20;1.63;;;29.00;28.30;;;;;;2248040;61;20431;-57
2023/09/21 04:17:17;0.00;0.00;0.62;0.00;0.00;0.62;2.93;2.10;;;29.00;28.90;;;;;;2244922;61;20459;-57
2023/09/21 04:20:09;0.00;0.00;0.62;0.00;0.00;0.62;2.43;1.87;;;29.00;28.30;;;;;;2244479;61;20442;-59
2023/09/21 04:22:55;0.00;0.00;0.62;0.00;0.00;0.62;2.60;1.90;;;28.90;28.30;;;;;;2245038;61;20914;-57
2023/09/21 04:25:44;0.00;0.00;0.62;0.00;0.00;0.62;2.30;1.63;;;28.90;28.30;;;;;;2247876;61;20961;-56
2023/09/21 04:28:30;0.00;0.00;0.62;0.00;0.00;0.62;2.53;1.80;;;28.90;28.80;;;;;;2247765;61;20364;-53
2023/09/21 04:31:15;0.00;0.00;0.62;0.00;0.00;0.62;3.07;2.03;;;28.90;28.30;;;;;;2245014;61;20391;-58
2023/09/21 04:34:00;0.00;0.00;0.62;0.00;0.00;0.62;2.77;2.20;;;28.90;28.30;;;;;;2244781;61;20359;-54
2023/09/21 04:36:47;0.00;0.00;0.62;0.00;0.00;0.62;2.93;2.20;;;28.90;28.20;;;;;;2245020;61;20460;-57
2023/09/21 04:39:34;0.00;0.00;0.62;0.00;0.00;0.62;2.97;2.00;;;28.90;28.20;;;;;;2244601;61;20387;-57
2023/09/21 04:42:18;0.00;0.00;0.62;0.00;0.00;0.62;2.80;1.93;;;28.90;28.20;;;;;;2244798;61;20460;-56
2023/09/21 04:45:08;0.00;0.00;0.62;0.00;0.00;0.62;2.53;1.90;;;28.90;28.20;;;;;;2244881;61;20466;-54
2023/09/21 04:48:00;0.00;0.00;0.62;0.00;0.00;0.62;3.03;1.97;;;28.90;28.20;;;;;;2247264;61;20407;-57
2023/09/21 04:50:47;0.00;0.00;0.62;0.00;0.00;0.62;2.10;1.80;;;28.90;28.20;;;;;;2244737;61;20451;-60
2023/09/21 04:53:32;0.00;0.00;0.62;0.00;0.00;0.62;3.00;1.93;;;28.90;28.20;;;;;;2244876;61;20367;-56
2023/09/21 04:56:17;0.00;0.00;0.62;0.00;0.00;0.62;2.00;1.53;;;28.90;28.20;;;;;;2244705;61;20942;-57
2023/09/21 04:59:02;0.00;0.00;0.62;0.00;0.00;0.62;2.57;1.77;;;28.90;28.70;;;;;;2247946;61;20431;-57
2023/09/21 05:01:48;0.00;0.00;0.62;0.00;0.00;0.62;3.07;1.80;;;28.90;28.20;;;;;;2248766;61;20411;-55
2023/09/21 05:04:33;0.00;0.00;0.62;0.00;0.00;0.62;2.33;1.97;;;28.80;28.10;;;;;;2248603;61;20391;-58
2023/09/21 05:07:17;0.00;0.00;0.62;0.00;0.00;0.62;2.37;1.73;;;28.80;28.10;;;;;;2248696;61;20460;-56
2023/09/21 05:10:06;0.00;0.00;0.62;0.00;0.00;0.62;2.60;2.13;;;28.90;28.10;;;;;;2247782;61;20403;-56
2023/09/21 05:12:51;0.00;0.00;0.62;0.00;0.00;0.62;2.23;1.70;;;28.80;28.10;;;;;;2245754;61;20492;-55
2023/09/21 05:15:36;0.00;0.00;0.62;0.00;0.00;0.62;2.83;1.70;;;28.80;28.00;;;;;;2248802;61;20367;-59
2023/09/21 05:18:22;0.00;0.00;0.62;0.00;0.00;0.62;2.27;1.80;;;28.80;28.00;;;;;;2248191;61;20372;-54
2023/09/21 05:21:07;0.00;0.00;0.62;0.00;0.00;0.62;2.47;2.20;;;28.80;28.00;;;;;;2248699;61;20395;-57
2023/09/21 05:23:52;0.00;0.00;0.62;0.00;0.00;0.62;2.63;1.73;;;28.80;28.10;;;;;;2248771;61;20371;-56
2023/09/21 05:26:36;0.00;0.00;0.62;0.00;0.00;0.62;2.67;2.10;;;28.80;28.00;;;;;;2248409;61;20386;-55
2023/09/21 05:29:22;0.00;0.00;0.62;0.00;0.00;0.62;2.40;1.90;;;28.80;28.00;;;;;;2248217;61;20471;-55
2023/09/21 05:32:07;0.00;0.00;0.62;0.00;0.00;0.62;2.60;1.93;;;28.80;28.00;;;;;;2248389;61;21033;-56
2023/09/21 05:34:53;0.00;0.00;0.62;0.00;0.00;0.62;2.50;1.93;;;28.80;28.00;;;;;;2248582;61;20368;-58
2023/09/21 05:37:39;0.00;0.00;0.62;0.00;0.00;0.62;3.43;2.10;;;28.80;28.00;;;;;;2248642;61;20504;-55
2023/09/21 05:40:24;0.00;0.00;0.62;0.00;0.00;0.62;2.33;1.93;;;28.80;28.00;;;;;;2248007;61;20825;-55
2023/09/21 05:43:09;0.00;0.00;0.62;0.00;0.00;0.62;2.50;2.03;;;28.70;27.90;;;;;;2248641;61;20371;-55
2023/09/21 05:45:53;0.00;0.00;0.62;0.00;0.00;0.62;3.37;2.37;;;28.70;27.90;;;;;;2248725;61;20435;-55
2023/09/21 05:48:38;0.00;0.00;0.62;0.00;0.00;0.62;3.13;2.23;;;28.80;28.00;;;;;;2248310;61;20495;-58
2023/09/21 05:51:25;0.00;0.00;0.62;0.00;0.00;0.62;3.17;2.30;;;28.70;27.90;;;;;;2248482;61;20372;-57
2023/09/21 05:54:09;0.00;0.00;0.62;0.00;0.00;0.62;2.83;2.10;;;28.70;27.90;;;;;;2248328;61;20404;-56
2023/09/21 05:56:55;0.00;0.00;0.62;0.00;0.00;0.62;2.77;2.37;;;28.70;27.90;;;;;;2248478;61;20359;-53
2023/09/21 05:59:39;0.00;0.00;0.62;0.00;0.00;0.62;3.80;2.30;;;28.70;27.90;;;;;;2248354;61;20391;-57
2023/09/21 06:02:24;0.00;0.00;0.62;0.00;0.00;0.62;2.90;2.10;;;28.70;27.90;;;;;;2244003;61;20368;-53
2023/09/21 06:05:10;0.00;0.00;0.62;0.00;0.00;0.62;2.60;2.03;;;28.70;27.90;;;;;;2248575;61;20408;-55
2023/09/21 06:07:56;0.00;0.00;0.62;0.00;0.00;0.62;3.13;2.43;;;28.70;27.90;;;;;;2248141;61;20368;-57
2023/09/21 06:10:41;0.00;0.00;0.62;0.00;0.00;0.62;3.17;2.10;;;28.70;27.90;;;;;;2244992;61;20961;-57
2023/09/21 06:13:26;0.00;0.00;0.62;0.00;0.00;0.62;3.30;2.37;;;28.70;27.90;;;;;;2248392;61;20381;-58
2023/09/21 06:16:11;0.00;0.00;0.62;0.00;0.00;0.62;3.10;2.80;;;28.70;27.90;;;;;;2248372;61;20897;-56
2023/09/21 06:18:56;0.00;0.00;0.62;0.00;0.00;0.62;3.10;2.47;;;28.70;27.90;;;;;;2248180;61;20386;-54
2023/09/21 06:21:41;0.00;0.00;0.62;0.00;0.00;0.62;4.03;2.60;;;28.70;27.90;;;;;;2248378;61;20403;-55
2023/09/21 06:24:27;0.00;0.00;0.62;0.00;0.00;0.62;3.50;2.57;;;28.70;27.90;;;;;;2248320;61;20378;-55
2023/09/21 06:27:13;0.00;0.00;0.62;0.00;0.00;0.62;3.10;2.63;;;28.70;27.90;;;;;;2248466;61;20471;-56
2023/09/21 06:29:58;0.00;0.00;0.62;0.00;0.00;0.62;3.33;2.73;;;28.70;27.90;;;;;;2248385;61;20430;-55
2023/09/21 06:32:43;0.00;0.00;0.62;0.00;0.00;0.62;4.03;2.90;;;28.70;27.90;;;;;;2248152;61;20375;-57
2023/09/21 06:35:27;0.00;0.00;0.62;0.00;0.00;0.62;3.60;2.27;;;28.70;27.90;;;;;;2248439;61;20448;-56
2023/09/21 06:38:12;0.00;0.00;0.62;0.00;0.00;0.62;3.30;2.33;;;28.70;27.90;;;;;;2248081;61;20370;-54
2023/09/21 06:40:58;0.00;0.00;0.62;0.00;0.00;0.62;3.13;2.30;;;28.70;27.90;;;;;;2248525;61;20999;-56
2023/09/21 06:43:44;0.00;0.00;0.62;0.00;0.00;0.62;3.63;2.37;;;28.60;27.90;;;;;;2248534;61;20504;-56
2023/09/21 06:46:28;0.00;0.00;0.62;0.00;0.00;0.62;4.33;3.13;;;28.70;27.90;;;;;;2248119;61;20426;-58
2023/09/21 06:49:12;0.00;0.00;0.62;0.00;0.00;0.62;2.80;2.50;;;28.70;27.90;;;;;;2247970;61;20391;-57
2023/09/21 06:51:58;0.00;0.00;0.62;0.00;0.00;0.62;2.67;2.13;;;28.60;27.90;;;;;;2248377;61;20888;-59
2023/09/21 06:54:44;0.00;0.00;0.62;0.00;0.00;0.62;2.70;1.90;;;28.70;28.00;;;;;;2248346;61;20907;-57
2023/09/21 06:57:31;0.00;0.00;0.62;0.00;0.00;0.62;6.60;2.70;;;28.70;28.00;;;;;;2248351;61;20406;-56
2023/09/21 07:00:16;0.00;0.00;0.62;0.00;0.00;0.62;3.20;1.90;;;28.70;28.00;;;;;;2248242;61;20933;-57
2023/09/21 07:03:01;0.00;0.00;0.62;0.00;0.00;0.62;2.70;2.00;;;28.60;28.00;;;;;;2248302;61;20383;-56
2023/09/21 07:05:48;0.00;0.00;0.62;0.00;0.00;0.62;2.70;2.00;;;28.60;27.90;;;;;;2245054;61;20436;-53
2023/09/21 07:08:33;0.00;0.00;0.62;0.00;0.00;0.62;3.43;2.00;;;28.60;28.00;;;;;;2247854;61;20363;-56
2023/09/21 07:11:21;0.00;0.00;0.62;0.00;0.00;0.62;2.50;2.10;;;28.60;28.00;;;;;;2248187;61;20917;-58
2023/09/21 07:14:07;0.00;0.00;0.62;0.00;0.00;0.62;2.53;2.03;;;28.60;28.00;;;;;;2248182;61;20380;-58
2023/09/21 07:16:54;0.00;0.00;0.62;0.00;0.00;0.62;2.50;2.30;;;28.60;28.00;;;;;;2248387;61;20391;-56
2023/09/21 07:19:40;0.00;0.00;0.62;0.00;0.00;0.62;3.80;2.33;;;28.60;28.00;;;;;;2247843;61;20485;-57
2023/09/21 07:22:25;0.00;0.00;0.62;0.00;0.00;0.62;2.10;1.80;;;28.60;28.00;;;;;;2248070;61;20384;-57
2023/09/21 07:25:09;0.00;0.00;0.62;0.00;0.00;0.62;2.10;1.60;;;28.60;28.00;;;;;;2247558;61;20431;-53
2023/09/21 07:27:54;0.00;0.00;0.62;0.00;0.00;0.62;2.70;1.97;;;28.60;28.00;;;;;;2248036;61;20405;-54
2023/09/21 07:30:41;0.00;0.00;0.62;0.00;0.00;0.62;2.53;1.70;;;28.60;28.00;;;;;;2247769;61;20387;-53
2023/09/21 07:33:26;0.00;0.00;0.62;0.00;0.00;0.62;2.57;1.90;;;28.60;28.10;;;;;;2248236;61;20375;-53
2023/09/21 07:36:11;0.00;0.00;0.62;0.00;0.00;0.62;2.37;1.80;;;28.60;28.10;;;;;;2247893;61;20380;-56
2023/09/21 07:38:56;0.00;0.00;0.62;0.00;0.00;0.62;2.33;1.80;;;28.60;28.10;;;;;;2247680;61;20407;-55
2023/09/21 07:41:41;0.00;0.00;0.62;0.00;0.00;0.62;2.57;2.03;;;28.60;28.10;;;;;;2248255;61;20966;-54
2023/09/21 07:44:26;0.00;0.00;0.62;0.00;0.00;0.62;2.23;1.70;;;28.60;28.10;;;;;;2248474;61;20779;-63
2023/09/21 07:47:12;0.00;0.00;0.62;0.00;0.00;0.62;3.00;1.87;;;28.60;28.10;;;;;;2248046;61;20809;-56
2023/09/21 07:49:57;0.00;0.00;0.62;0.00;0.00;0.62;2.30;1.80;;;28.60;28.10;;;;;;2248168;61;21018;-58
2023/09/21 07:52:42;0.00;0.00;0.62;0.00;0.00;0.62;3.33;2.13;;;28.60;28.20;;;;;;2247859;61;20411;-56
2023/09/21 07:55:27;0.00;0.00;0.62;0.00;0.00;0.62;3.00;2.00;;;28.60;28.20;;;;;;2248269;61;20911;-58
2023/09/21 07:58:12;0.00;0.00;0.62;0.00;0.00;0.62;2.70;1.70;;;28.60;28.20;;;;;;2247910;61;20375;-58
2023/09/21 08:00:57;0.00;0.00;0.62;0.00;0.00;0.62;2.13;1.60;;;28.60;28.20;;;;;;2248005;61;20392;-58
2023/09/21 08:03:44;0.00;0.00;0.62;0.00;0.00;0.62;2.70;2.00;;;28.60;28.20;;;;;;2248147;61;20491;-57
2023/09/21 08:06:28;0.00;0.00;0.62;0.00;0.00;0.62;3.20;2.10;;;28.60;28.30;;;;;;2248185;61;20827;-58
2023/09/21 08:09:14;0.00;0.00;0.62;0.00;0.00;0.62;2.50;1.70;;;28.60;28.30;;;;;;2247512;61;20392;-58
2023/09/21 08:12:00;0.00;0.00;0.62;0.00;0.00;0.62;2.97;1.90;;;28.60;28.30;;;;;;2248121;61;20379;-58
2023/09/21 08:14:44;0.00;0.00;0.62;0.00;0.00;0.62;1.97;1.57;;;28.60;28.30;;;;;;2247769;61;20367;-54
2023/09/21 08:17:30;0.00;0.00;0.62;0.00;0.00;0.62;2.80;1.83;;;28.60;28.40;;;;;;2248053;61;20497;-51
2023/09/21 08:20:16;0.00;0.00;0.62;0.00;0.00;0.62;2.80;1.83;;;28.60;28.30;;;;;;2247627;61;20468;-55
2023/09/21 08:23:00;0.00;0.00;0.62;0.00;0.00;0.62;3.33;1.97;;;28.60;28.40;;;;;;2248036;61;20379;-57
2023/09/21 08:25:45;0.00;0.00;0.62;0.00;0.00;0.62;2.03;1.47;;;28.60;28.40;;;;;;2248026;61;20472;-51
2023/09/21 08:28:30;0.00;0.00;0.62;0.00;0.00;0.62;2.20;1.57;;;28.60;28.40;;;;;;2247736;61;20387;-54
2023/09/21 08:31:14;0.00;0.00;0.62;0.00;0.00;0.62;2.63;1.67;;;28.60;28.40;;;;;;2247753;61;20367;-53
2023/09/21 08:33:59;0.00;0.00;0.62;0.00;0.00;0.62;2.07;1.70;;;28.60;28.40;;;;;;2248539;61;20362;-59
2023/09/21 08:36:45;0.00;0.00;0.62;0.00;0.00;0.62;2.60;1.90;;;28.60;28.40;;;;;;2248764;61;20363;-58
2023/09/21 08:39:30;0.00;0.00;0.62;0.00;0.00;0.62;2.13;1.83;;;28.60;28.40;;;;;;2248457;61;20395;-57
2023/09/21 08:42:14;0.00;0.00;0.62;0.00;0.00;0.62;2.27;1.60;;;28.60;28.40;;;;;;2248913;61;20371;-57
2023/09/21 08:44:59;0.00;0.00;0.62;0.00;0.00;0.62;2.47;1.67;;;28.60;28.40;;;;;;2248728;61;20843;-56
2023/09/21 08:47:46;0.00;0.00;0.62;0.00;0.00;0.62;2.33;1.87;;;28.60;28.50;;;;;;2248600;61;20414;-58
2023/09/21 08:50:32;0.00;0.00;0.62;0.00;0.00;0.62;3.90;1.73;;;28.60;28.50;;;;;;2248718;61;20382;-58
2023/09/21 08:53:21;0.00;0.00;0.62;0.00;0.00;0.62;2.10;1.53;;;28.60;28.50;;;;;;2248519;61;20371;-56
2023/09/21 08:56:07;0.00;0.00;0.62;0.00;0.00;0.62;2.03;1.70;;;28.60;28.80;;;;;;2248867;61;20889;-58
2023/09/21 08:58:57;0.00;0.00;0.62;0.00;0.00;0.62;2.63;1.83;;;28.60;28.50;;;;;;2248368;61;20957;-56
2023/09/21 09:01:42;0.00;0.00;0.62;0.00;0.00;0.62;2.50;1.70;;;28.60;28.50;;;;;;2248846;61;20790;-58
2023/09/21 09:04:28;0.00;0.00;0.62;0.00;0.00;0.62;2.20;1.73;;;28.60;28.50;;;;;;2248502;61;20367;-55
2023/09/21 09:07:13;0.00;0.00;0.62;0.00;0.00;0.62;3.50;1.87;;;28.70;28.60;;;;;;2248303;61;20910;-58
2023/09/21 09:09:59;0.00;0.00;0.62;0.00;0.00;0.62;2.90;1.60;;;28.60;28.50;;;;;;2248392;61;20524;-56
2023/09/21 09:12:44;0.00;0.00;0.62;0.00;0.00;0.62;2.00;1.47;;;28.60;28.50;;;;;;2248629;61;20418;-63
2023/09/21 09:15:34;0.00;0.00;0.62;0.00;0.00;0.62;3.20;1.60;;;28.70;28.60;;;;;;2248471;61;20415;-56
2023/09/21 09:18:19;0.00;0.00;0.62;0.00;0.00;0.62;2.53;2.13;;;28.60;28.50;;;;;;2248333;61;20510;-54
2023/09/21 09:21:04;0.00;0.00;0.62;0.00;0.00;0.62;3.03;2.00;;;28.70;28.60;;;;;;2248697;61;20387;-60
2023/09/21 09:23:49;0.00;0.00;0.62;0.00;0.00;0.62;2.40;1.53;;;28.70;28.60;;;;;;2248725;61;20363;-55
2023/09/21 09:26:41;0.00;0.00;0.62;0.00;0.00;0.62;1.77;1.40;;;28.60;28.60;;;;;;2248734;61;20559;-55
2023/09/21 09:29:26;0.00;0.00;0.62;0.00;0.00;0.62;2.13;1.77;;;28.70;28.60;;;;;;2248118;61;20407;-57
2023/09/21 09:32:14;0.00;0.00;0.62;0.00;0.00;0.62;2.40;1.87;;;28.70;28.60;;;;;;2248616;61;20766;-53
2023/09/21 09:35:01;0.00;0.00;0.62;0.00;0.00;0.62;1.90;1.50;;;28.70;28.70;;;;;;2248695;61;20995;-58
2023/09/21 09:37:49;0.00;0.00;0.62;0.00;0.00;0.62;2.47;1.57;;;28.70;28.70;;;;;;2248154;61;20395;-56
2023/09/21 09:40:37;0.00;0.00;0.62;0.00;0.00;0.62;1.90;1.40;;;28.70;28.70;;;;;;2248786;61;20383;-56
2023/09/21 09:43:27;0.00;0.00;0.62;0.00;0.00;0.62;2.73;1.80;;;28.70;28.70;;;;;;2248615;61;20772;-52
2023/09/21 09:46:12;0.00;0.00;0.62;0.00;0.00;0.62;1.93;1.60;;;28.70;28.70;;;;;;2248437;61;20380;-53
2023/09/21 09:49:02;0.00;0.00;0.62;0.00;0.00;0.62;2.40;1.73;;;28.70;28.70;;;;;;2248072;61;20844;-55
2023/09/21 09:51:48;0.00;0.00;0.62;0.00;0.00;0.62;2.50;1.80;;;28.70;28.80;;;;;;2248359;61;20368;-53
2023/09/21 09:54:33;0.00;0.00;0.62;0.00;0.00;0.62;2.37;1.57;;;28.80;28.80;;;;;;2248555;61;20435;-57
2023/09/21 09:57:18;0.00;0.00;0.62;0.00;0.00;0.62;2.30;1.67;;;28.70;28.80;;;;;;2248614;61;20415;-56
2023/09/21 10:00:15;0.00;0.00;0.62;0.00;0.00;0.62;1.80;1.40;;;28.80;28.90;;;;;;2248144;61;20950;-54
2023/09/21 10:03:00;0.00;0.00;0.62;0.00;0.00;0.62;2.00;1.60;;;28.80;28.90;;;;;;2248468;61;20372;-54
2023/09/21 10:05:46;0.00;0.00;0.62;0.00;0.00;0.62;2.23;1.60;;;28.80;28.90;;;;;;2248315;61;20431;-57
2023/09/21 10:08:31;0.00;0.00;0.62;0.00;0.00;0.62;2.13;1.70;;;28.80;28.90;;;;;;2248272;61;20901;-52
2023/09/21 10:11:17;0.00;0.00;0.62;0.00;0.00;0.62;2.10;1.47;;;28.80;28.90;;;;;;2248517;61;20846;-60
2023/09/21 10:14:03;0.00;0.00;0.62;0.00;0.00;0.62;2.33;1.73;;;28.80;29.00;;;;;;2248520;61;20372;-56
2023/09/21 10:16:56;0.00;0.00;0.62;0.00;0.00;0.62;2.20;1.80;;;28.80;29.00;;;;;;2248479;61;20439;-56
2023/09/21 10:19:43;0.00;0.00;0.62;0.00;0.00;0.62;2.37;1.70;;;28.90;29.00;;;;;;2248191;61;20427;-57
2023/09/21 10:22:28;0.00;0.00;0.62;0.00;0.00;0.62;2.03;1.67;;;28.90;29.00;;;;;;2248387;61;20792;-54
2023/09/21 10:25:15;0.00;0.00;0.62;0.00;0.00;0.62;2.60;1.73;;;28.90;29.10;;;;;;2245485;61;20486;-56
2023/09/21 10:28:00;0.00;0.00;0.62;0.00;0.00;0.62;2.43;1.57;;;28.90;29.10;;;;;;2247869;61;20387;-57
2023/09/21 10:30:44;0.00;0.00;0.62;0.00;0.00;0.62;2.30;1.57;;;28.90;29.10;;;;;;2248488;61;20419;-52
2023/09/21 10:33:31;0.00;0.00;0.62;0.00;0.00;0.62;2.13;1.80;;;28.90;29.20;;;;;;2248381;61;20388;-56
2023/09/21 10:36:19;0.00;0.00;0.62;0.00;0.00;0.62;2.17;1.70;;;28.90;29.10;;;;;;2248229;61;20376;-57
2023/09/21 10:39:24;0.00;0.00;0.62;0.00;0.00;0.62;2.37;1.60;;;28.90;29.20;;;;;;2248144;61;20387;-55
2023/09/21 10:42:33;0.00;0.00;0.62;0.00;0.00;0.62;2.17;1.50;;;28.90;29.20;;;;;;2248491;61;20383;-54
2023/09/21 10:45:18;0.00;0.00;0.62;0.00;0.00;0.62;1.80;1.40;;;28.90;29.20;;;;;;2246930;61;20435;-55
2023/09/21 10:48:03;0.00;0.00;0.62;0.00;0.00;0.62;2.13;1.57;;;29.00;29.20;;;;;;2248011;61;20364;-57
2023/09/21 10:50:50;0.00;0.00;0.62;0.00;0.00;0.62;2.67;1.50;;;29.00;29.20;;;;;;2244907;61;20376;-54
2023/09/21 10:53:36;0.00;0.00;0.62;0.00;0.00;0.62;2.10;1.50;;;29.00;29.20;;;;;;2248635;61;20905;-53
2023/09/21 10:56:22;0.00;0.00;0.62;0.00;0.00;0.62;2.57;1.73;;;29.00;29.80;;;;;;2242313;61;20411;-54
2023/09/21 10:59:08;0.00;0.00;0.62;0.00;0.00;0.62;1.63;1.13;;;29.00;29.20;;;;;;2247823;61;20474;-57